Achtergracht — PCCL — position and weather

sailwx.info

Track history (hours):
 
Tides and Currents Weather Stations Pressure Air Temp Water Temp Dewpoint Dewpoint Depression Visibility Wind Speed Wind Dir Waves Ship Positions

Achtergracht

Last reported at 2014-Nov-15 19:30 UTC. Time now 2014-Nov-21 10:34 UTC.
Position N 34°00' E 130°12'.

Length 130 m; beam 19 m; draft 9 m.

Type: Cargo ship. MMSI: 244601000.

Date/timePositionNaut miles runAvg speedWind from/ knotsBaromVisibWave heightAir tempDewpointWater temp
2014-Nov-15 19:30N 34°00' E 130°12'41113.1
2014-Nov-14 12:00N 35°12' E 122°00'7511.5 350 / 101029.010.8 11.0 7.217.0
2014-Nov-14 05:28N 35°56' E 120°45'1313.9
2014-Nov-14 04:33N 35°59' E 120°30'1313.0
2014-Nov-14 03:33N 36°01' E 120°14'1 0.3
2014-Nov-14 01:15N 36°01' E 120°13'0 0.0
2014-Nov-13 22:21N 36°01' E 120°13'0 0.0
2014-Nov-13 18:21N 36°01' E 120°13'0 0.0
2014-Nov-13 17:27N 36°01' E 120°13'0 0.0
2014-Nov-13 16:27N 36°01' E 120°13'0 0.0
2014-Nov-13 15:33N 36°01' E 120°13'0 0.0
2014-Nov-13 12:33N 36°01' E 120°13'0 0.0
2014-Nov-13 11:09N 36°01' E 120°13'0 0.0
2014-Nov-12 21:20N 36°01' E 120°13'0 0.0
2014-Nov-12 18:14N 36°01' E 120°13'1 1.0
2014-Nov-12 17:33N 36°01' E 120°14'5 3.4
2014-Nov-12 16:11N 36°06' E 120°16'0 0.0
2014-Nov-12 15:29N 36°06' E 120°16'0 0.0
2014-Nov-12 14:23N 36°06' E 120°16'0 0.0
2014-Nov-12 13:29N 36°06' E 120°16'0 0.0
2014-Nov-12 12:29N 36°06' E 120°16'0 0.0
2014-Nov-12 11:23N 36°06' E 120°16'0 0.0
2014-Nov-12 09:29N 36°06' E 120°16'0 0.1
2014-Nov-12 08:29N 36°06' E 120°16'0 0.0
2014-Nov-12 07:29N 36°06' E 120°16'0 0.0
2014-Nov-12 05:29N 36°06' E 120°16'0 0.0
2014-Nov-12 04:23N 36°06' E 120°16'0 0.0
2014-Nov-12 03:29N 36°06' E 120°16'0 0.0
2014-Nov-12 02:23N 36°06' E 120°16'0 0.0
2014-Nov-12 01:29N 36°06' E 120°16'0 0.0
2014-Nov-12 00:29N 36°06' E 120°16'0 0.0
2014-Nov-11 23:17N 36°06' E 120°16'0 0.1
2014-Nov-11 22:23N 36°06' E 120°16'0 0.0
2014-Nov-11 20:11N 36°06' E 120°16'0 0.0
2014-Nov-11 19:29N 36°06' E 120°16'0 0.0
2014-Nov-11 18:11N 36°06' E 120°16'0 0.1
2014-Nov-11 17:04N 36°06' E 120°16'0 0.0
2014-Nov-11 16:28N 36°06' E 120°16'0 0.0
2014-Nov-11 15:28N 36°06' E 120°16'0 0.0
2014-Nov-11 14:22N 36°06' E 120°16'0 0.0
2014-Nov-11 13:28N 36°06' E 120°16'0 0.0
2014-Nov-11 12:29N 36°06' E 120°16'0 0.1
2014-Nov-11 11:22N 36°06' E 120°16'0 0.0
2014-Nov-10 23:04N 36°06' E 120°16'0 0.0
2014-Nov-10 17:28N 36°06' E 120°16'0 0.1
2014-Nov-10 15:10N 36°06' E 120°16'0 0.1
2014-Nov-10 14:22N 36°06' E 120°16'0 0.0
2014-Nov-10 12:28N 36°06' E 120°16'0 0.0
2014-Nov-10 05:16N 36°06' E 120°16'0 0.1
2014-Nov-10 04:33N 36°06' E 120°16'0 0.0
2014-Nov-10 02:33N 36°06' E 120°16'0 0.0
2014-Nov-10 01:33N 36°06' E 120°16'0 0.0
2014-Nov-10 00:33N 36°06' E 120°16'0 0.1
2014-Nov-09 23:11N 36°06' E 120°16'4 6.7
2014-Nov-09 22:33N 36°02' E 120°18'1111.4
2014-Nov-09 21:33N 35°59' E 120°32'456 8.9
2014-Nov-07 18:00N 28°42' E 123°06'34810.7 040 / 201020.8 5.4 18.0
2014-Nov-06 09:32N 24°19' E 118°52'44 5.4
2014-Nov-06 01:18N 24°33' E 118°05'0 0.0
2014-Nov-05 23:24N 24°33' E 118°05'0 0.0
2014-Nov-05 22:24N 24°33' E 118°05'0 0.0
2014-Nov-05 21:30N 24°33' E 118°05'0 0.0
2014-Nov-05 20:24N 24°33' E 118°06'  
Track history (hours):
 
Tides and Currents Weather Stations Pressure Air Temp Water Temp Dewpoint Dewpoint Depression Visibility Wind Speed Wind Dir Waves Ship Positions

Achtergracht

Last reported at 2014-Nov-15 19:30 UTC. Time now 2014-Nov-21 10:34 UTC.
Position N 34°00' E 130°12'.

Length 130 m; beam 19 m; draft 9 m.

Type: Cargo ship. MMSI: 244601000.

Date/timePositionNaut miles runAvg speedWind from/ knotsBaromVisibWave heightAir tempDewpointWater temp
2014-Nov-15 19:30N 34°00' E 130°12'41113.1
2014-Nov-14 12:00N 35°12' E 122°00'7511.5 350 / 101029.010.8 11.0 7.217.0
2014-Nov-14 05:28N 35°56' E 120°45'1313.9
2014-Nov-14 04:33N 35°59' E 120°30'1313.0
2014-Nov-14 03:33N 36°01' E 120°14'1 0.3
2014-Nov-14 01:15N 36°01' E 120°13'0 0.0
2014-Nov-13 22:21N 36°01' E 120°13'0 0.0
2014-Nov-13 18:21N 36°01' E 120°13'0 0.0
2014-Nov-13 17:27N 36°01' E 120°13'0 0.0
2014-Nov-13 16:27N 36°01' E 120°13'0 0.0
2014-Nov-13 15:33N 36°01' E 120°13'0 0.0
2014-Nov-13 12:33N 36°01' E 120°13'0 0.0
2014-Nov-13 11:09N 36°01' E 120°13'0 0.0
2014-Nov-12 21:20N 36°01' E 120°13'0 0.0
2014-Nov-12 18:14N 36°01' E 120°13'1 1.0
2014-Nov-12 17:33N 36°01' E 120°14'5 3.4
2014-Nov-12 16:11N 36°06' E 120°16'0 0.0
2014-Nov-12 15:29N 36°06' E 120°16'0 0.0
2014-Nov-12 14:23N 36°06' E 120°16'0 0.0
2014-Nov-12 13:29N 36°06' E 120°16'0 0.0
2014-Nov-12 12:29N 36°06' E 120°16'0 0.0
2014-Nov-12 11:23N 36°06' E 120°16'0 0.0
2014-Nov-12 09:29N 36°06' E 120°16'0 0.1
2014-Nov-12 08:29N 36°06' E 120°16'0 0.0
2014-Nov-12 07:29N 36°06' E 120°16'0 0.0
2014-Nov-12 05:29N 36°06' E 120°16'0 0.0
2014-Nov-12 04:23N 36°06' E 120°16'0 0.0
2014-Nov-12 03:29N 36°06' E 120°16'0 0.0
2014-Nov-12 02:23N 36°06' E 120°16'0 0.0
2014-Nov-12 01:29N 36°06' E 120°16'0 0.0
2014-Nov-12 00:29N 36°06' E 120°16'0 0.0
2014-Nov-11 23:17N 36°06' E 120°16'0 0.1
2014-Nov-11 22:23N 36°06' E 120°16'0 0.0
2014-Nov-11 20:11N 36°06' E 120°16'0 0.0
2014-Nov-11 19:29N 36°06' E 120°16'0 0.0
2014-Nov-11 18:11N 36°06' E 120°16'0 0.1
2014-Nov-11 17:04N 36°06' E 120°16'0 0.0
2014-Nov-11 16:28N 36°06' E 120°16'0 0.0
2014-Nov-11 15:28N 36°06' E 120°16'0 0.0
2014-Nov-11 14:22N 36°06' E 120°16'0 0.0
2014-Nov-11 13:28N 36°06' E 120°16'0 0.0
2014-Nov-11 12:29N 36°06' E 120°16'0 0.1
2014-Nov-11 11:22N 36°06' E 120°16'0 0.0
2014-Nov-10 23:04N 36°06' E 120°16'0 0.0
2014-Nov-10 17:28N 36°06' E 120°16'0 0.1
2014-Nov-10 15:10N 36°06' E 120°16'0 0.1
2014-Nov-10 14:22N 36°06' E 120°16'0 0.0
2014-Nov-10 12:28N 36°06' E 120°16'0 0.0
2014-Nov-10 05:16N 36°06' E 120°16'0 0.1
2014-Nov-10 04:33N 36°06' E 120°16'0 0.0
2014-Nov-10 02:33N 36°06' E 120°16'0 0.0
2014-Nov-10 01:33N 36°06' E 120°16'0 0.0
2014-Nov-10 00:33N 36°06' E 120°16'0 0.1
2014-Nov-09 23:11N 36°06' E 120°16'4 6.7
2014-Nov-09 22:33N 36°02' E 120°18'1111.4
2014-Nov-09 21:33N 35°59' E 120°32'456 8.9
2014-Nov-07 18:00N 28°42' E 123°06'34810.7 040 / 201020.8 5.4 18.0
2014-Nov-06 09:32N 24°19' E 118°52'44 5.4
2014-Nov-06 01:18N 24°33' E 118°05'0 0.0
2014-Nov-05 23:24N 24°33' E 118°05'0 0.0
2014-Nov-05 22:24N 24°33' E 118°05'0 0.0
2014-Nov-05 21:30N 24°33' E 118°05'0 0.0
2014-Nov-05 20:24N 24°33' E 118°06'  

Dump ship's entire track history